createdAt,value
2022-10-17T00:02:05.889Z,19.04
2022-10-17T00:04:32.248Z,19.11
2022-10-17T00:06:58.623Z,19.10
2022-10-17T00:09:25.069Z,19.28
2022-10-17T00:11:51.420Z,19.21
2022-10-17T00:14:17.728Z,19.05
2022-10-17T00:16:44.078Z,19.20
2022-10-17T00:19:10.470Z,19.16
2022-10-17T00:21:36.851Z,19.19
2022-10-17T00:24:03.344Z,19.28
2022-10-17T00:26:29.777Z,19.31
2022-10-17T00:28:56.718Z,19.30
2022-10-17T00:31:24.079Z,19.22
2022-10-17T00:33:51.733Z,19.44
2022-10-17T00:36:20.854Z,19.43
2022-10-17T00:38:49.572Z,19.16
2022-10-17T00:41:19.721Z,19.11
2022-10-17T00:44:02.749Z,19.40
2022-10-17T00:46:34.553Z,18.65
2022-10-17T00:49:06.499Z,19.06
2022-10-17T00:51:46.765Z,19.28
2022-10-17T00:54:16.304Z,19.14
2022-10-17T00:56:44.747Z,19.09
2022-10-17T00:59:12.654Z,19.09
2022-10-17T01:01:41.423Z,19.05
2022-10-17T01:04:07.809Z,19.15
2022-10-17T01:06:34.135Z,19.06
2022-10-17T01:09:00.602Z,19.30
2022-10-17T01:11:45.446Z,19.18
2022-10-17T01:14:31.207Z,19.03
2022-10-17T01:17:09.347Z,19.15
2022-10-17T01:19:59.174Z,19.18
2022-10-17T01:22:31.787Z,19.16
2022-10-17T01:25:13.474Z,19.01
2022-10-17T01:27:52.490Z,19.01
2022-10-17T01:30:46.579Z,19.12
2022-10-17T01:33:36.580Z,19.01
2022-10-17T01:36:10.376Z,19.22
2022-10-17T01:38:47.573Z,18.91
2022-10-17T01:41:30.389Z,19.10
2022-10-17T01:44:05.283Z,18.89
2022-10-17T01:46:41.205Z,19.06
2022-10-17T01:49:11.320Z,19.02
2022-10-17T01:51:43.346Z,19.06
2022-10-17T01:54:15.419Z,18.64
2022-10-17T01:56:44.583Z,18.91
2022-10-17T01:59:19.551Z,18.88
2022-10-17T02:01:48.189Z,18.96
2022-10-17T02:04:16.337Z,18.77
2022-10-17T02:06:42.705Z,18.72
2022-10-17T02:09:23.992Z,18.87
2022-10-17T02:11:59.379Z,18.82
2022-10-17T02:14:51.872Z,18.82
2022-10-17T02:17:39.875Z,18.77
2022-10-17T02:20:40.808Z,18.75
2022-10-17T02:26:04.229Z,18.55
2022-10-17T02:28:39.565Z,18.66
2022-10-17T02:31:17.643Z,18.60
2022-10-17T02:33:50.946Z,18.69
2022-10-17T02:36:22.853Z,18.80
2022-10-17T02:38:51.509Z,18.49
2022-10-17T02:41:19.470Z,18.52
2022-10-17T02:43:48.513Z,18.79
2022-10-17T02:46:22.926Z,18.57
2022-10-17T02:48:49.140Z,18.80
2022-10-17T02:51:20.643Z,18.55
2022-10-17T02:54:08.596Z,18.65
2022-10-17T02:56:42.644Z,18.60
2022-10-17T02:59:15.290Z,18.72
2022-10-17T03:01:42.047Z,18.59
2022-10-17T03:04:12.458Z,18.58
2022-10-17T03:06:40.230Z,18.75
2022-10-17T03:09:07.632Z,18.33
2022-10-17T03:11:34.273Z,18.52
2022-10-17T03:14:00.580Z,18.47
2022-10-17T03:16:26.939Z,18.34
2022-10-17T03:18:53.257Z,18.49
2022-10-17T03:21:19.683Z,18.48
2022-10-17T03:23:46.007Z,18.48
2022-10-17T03:26:12.641Z,18.27
2022-10-17T03:28:39.028Z,18.27
2022-10-17T03:31:10.160Z,18.49
2022-10-17T03:33:37.580Z,18.20
2022-10-17T03:36:08.480Z,18.50
2022-10-17T03:38:35.503Z,17.70
2022-10-17T03:41:02.610Z,18.18
2022-10-17T03:43:29.630Z,18.14
2022-10-17T03:45:57.766Z,18.17
2022-10-17T03:48:24.776Z,17.95
2022-10-17T03:50:51.427Z,17.92
2022-10-17T03:53:17.897Z,18.17
2022-10-17T03:55:44.227Z,17.84
2022-10-17T03:58:10.586Z,18.16
2022-10-17T04:00:37.002Z,18.12
2022-10-17T04:03:03.457Z,18.16
2022-10-17T04:05:29.805Z,17.99
2022-10-17T04:07:57.818Z,17.96
2022-10-17T04:10:26.209Z,18.06
2022-10-17T04:12:52.560Z,17.98
2022-10-17T04:15:18.892Z,18.15
2022-10-17T04:17:45.797Z,18.15
2022-10-17T04:20:13.077Z,18.13
2022-10-17T04:22:39.394Z,18.02
2022-10-17T04:25:06.177Z,18.19
2022-10-17T04:27:32.508Z,18.02
2022-10-17T04:29:58.834Z,17.96
2022-10-17T04:32:25.859Z,18.02
2022-10-17T04:34:52.209Z,18.08
2022-10-17T04:37:18.545Z,17.90
2022-10-17T04:39:45.046Z,17.90
2022-10-17T04:42:11.374Z,18.08
2022-10-17T04:44:37.683Z,18.00
2022-10-17T04:47:04.305Z,17.91
2022-10-17T04:49:30.629Z,17.73
2022-10-17T04:51:57.021Z,17.77
2022-10-17T04:54:23.419Z,18.00
2022-10-17T04:56:49.773Z,17.96
2022-10-17T04:59:16.069Z,17.81
2022-10-17T05:01:42.376Z,17.92
2022-10-17T05:04:08.726Z,17.95
2022-10-17T05:06:35.029Z,17.94
2022-10-17T05:09:01.352Z,18.05
2022-10-17T05:11:29.095Z,17.90
2022-10-17T05:13:58.032Z,18.04
2022-10-17T05:16:25.593Z,18.22
2022-10-17T05:18:53.995Z,18.28
2022-10-17T05:21:21.427Z,18.05
2022-10-17T05:23:47.971Z,18.29
2022-10-17T05:26:14.667Z,18.37
2022-10-17T05:28:41.127Z,18.39
2022-10-17T05:31:09.492Z,18.51
2022-10-17T05:33:37.093Z,18.24
2022-10-17T05:36:04.026Z,18.28
2022-10-17T05:38:30.399Z,18.32
2022-10-17T05:40:58.402Z,18.38
2022-10-17T05:43:24.723Z,18.28
2022-10-17T05:45:51.430Z,18.51
2022-10-17T05:48:22.350Z,18.33
2022-10-17T05:50:49.346Z,18.59
2022-10-17T05:53:19.028Z,18.42
2022-10-17T05:55:45.378Z,18.27
2022-10-17T05:58:17.781Z,18.35
2022-10-17T06:00:48.896Z,18.39
2022-10-17T06:03:15.215Z,17.77
2022-10-17T06:05:41.613Z,18.20
2022-10-17T06:08:08.023Z,17.73
2022-10-17T06:10:34.361Z,17.48
2022-10-17T06:13:00.729Z,18.04
2022-10-17T06:15:27.085Z,18.25
2022-10-17T06:17:53.428Z,18.26
2022-10-17T06:20:19.818Z,18.14
2022-10-17T06:22:46.192Z,18.33
2022-10-17T06:25:12.677Z,18.20
2022-10-17T06:27:39.038Z,18.24
2022-10-17T06:30:05.832Z,18.21
2022-10-17T06:32:32.389Z,18.37
2022-10-17T06:34:58.997Z,18.47
2022-10-17T06:37:25.357Z,18.45
2022-10-17T06:39:51.714Z,18.36
2022-10-17T06:42:18.044Z,18.40
2022-10-17T06:44:44.340Z,18.45
2022-10-17T06:47:11.306Z,18.45
2022-10-17T06:49:38.045Z,18.24
2022-10-17T06:52:04.959Z,18.28
2022-10-17T06:54:31.526Z,18.42
2022-10-17T06:56:57.916Z,18.44
2022-10-17T06:59:24.330Z,18.55
2022-10-17T07:01:50.681Z,18.50
2022-10-17T07:04:17.083Z,18.43
2022-10-17T07:06:43.914Z,18.85
2022-10-17T07:09:10.420Z,18.77
2022-10-17T07:11:36.937Z,18.30
2022-10-17T07:14:03.625Z,18.88
2022-10-17T07:16:30.175Z,18.75
2022-10-17T07:18:56.792Z,18.53
2022-10-17T07:21:23.373Z,18.73
2022-10-17T07:23:50.030Z,18.89
2022-10-17T07:26:18.524Z,18.98
2022-10-17T07:28:58.986Z,18.98
2022-10-17T07:31:25.652Z,19.12
2022-10-17T07:33:51.976Z,19.32
2022-10-17T07:36:18.731Z,19.42
2022-10-17T07:38:45.126Z,19.26
2022-10-17T07:41:16.489Z,18.98
2022-10-17T07:43:45.689Z,19.52
2022-10-17T07:46:12.109Z,19.29
2022-10-17T07:48:39.485Z,19.35
2022-10-17T07:51:08.901Z,19.28
2022-10-17T07:53:37.263Z,19.52
2022-10-17T07:56:07.964Z,19.52
2022-10-17T07:58:35.616Z,19.53
2022-10-17T08:01:04.010Z,19.83
2022-10-17T08:03:30.326Z,19.83
2022-10-17T08:06:00.918Z,19.77
2022-10-17T08:08:27.751Z,19.55
2022-10-17T08:10:56.389Z,19.76
2022-10-17T08:13:23.192Z,19.85
2022-10-17T08:15:49.625Z,19.80
2022-10-17T08:18:16.021Z,20.04
2022-10-17T08:20:42.887Z,20.24
2022-10-17T08:23:09.253Z,20.01
2022-10-17T08:25:39.621Z,20.29
2022-10-17T08:30:34.339Z,20.00
2022-10-17T08:33:00.683Z,20.24
2022-10-17T08:35:27.133Z,20.34
2022-10-17T08:37:53.452Z,20.09
2022-10-17T08:40:27.139Z,20.14
2022-10-17T08:43:24.769Z,20.36
2022-10-17T08:46:05.393Z,20.39
2022-10-17T08:48:36.838Z,20.54
2022-10-17T08:51:12.419Z,20.74
2022-10-17T08:53:50.847Z,20.70
2022-10-17T08:56:44.173Z,21.01
2022-10-17T08:59:14.564Z,21.04
2022-10-17T09:02:12.040Z,21.03
2022-10-17T09:04:49.014Z,20.81
2022-10-17T09:07:32.284Z,20.90
2022-10-17T09:10:17.026Z,20.93
2022-10-17T09:13:06.921Z,21.01
2022-10-17T09:15:49.227Z,20.98
2022-10-17T09:18:23.562Z,21.03
2022-10-17T09:20:52.501Z,21.06
2022-10-17T09:23:23.757Z,21.12
2022-10-17T09:25:53.836Z,20.87
2022-10-17T09:28:30.465Z,21.01
2022-10-17T09:31:05.066Z,20.99
2022-10-17T09:33:56.120Z,21.04
2022-10-17T09:36:39.448Z,20.58
2022-10-17T09:39:13.661Z,21.06
2022-10-17T09:41:46.472Z,21.36
2022-10-17T09:44:34.995Z,21.34
2022-10-17T09:47:27.330Z,21.31
2022-10-17T09:49:54.504Z,21.09
2022-10-17T09:52:47.463Z,21.37
2022-10-17T09:55:40.989Z,21.28
2022-10-17T09:58:08.865Z,21.42
2022-10-17T10:00:39.579Z,21.37
2022-10-17T10:03:23.817Z,21.45
2022-10-17T10:06:02.884Z,21.25
2022-10-17T10:08:33.697Z,21.41
2022-10-17T10:11:04.540Z,21.43
2022-10-17T10:13:33.303Z,20.82
2022-10-17T10:16:16.819Z,21.64
2022-10-17T10:18:45.462Z,21.60
2022-10-17T10:21:20.347Z,21.64
2022-10-17T10:24:03.293Z,21.50
2022-10-17T10:26:39.060Z,21.61
2022-10-17T10:29:20.335Z,21.65
2022-10-17T10:31:47.475Z,21.47
2022-10-17T10:34:32.688Z,21.30
2022-10-17T10:37:05.796Z,21.23
2022-10-17T10:39:37.165Z,21.45
2022-10-17T10:42:07.953Z,21.50
2022-10-17T10:44:38.091Z,21.25
2022-10-17T10:47:16.371Z,21.46
2022-10-17T10:49:43.398Z,21.24
2022-10-17T10:52:18.247Z,21.35
2022-10-17T10:54:53.823Z,21.58
2022-10-17T10:57:24.279Z,21.72
2022-10-17T10:59:53.705Z,21.74
2022-10-17T11:02:36.395Z,21.71
2022-10-17T11:05:23.009Z,21.79
2022-10-17T11:08:17.476Z,21.83
2022-10-17T11:11:00.647Z,21.89
2022-10-17T11:13:53.370Z,22.06
2022-10-17T11:16:31.784Z,22.16
2022-10-17T11:19:07.242Z,22.31
2022-10-17T11:21:45.464Z,22.30
2022-10-17T11:24:27.993Z,22.22
2022-10-17T11:27:03.187Z,22.52
2022-10-17T11:29:35.416Z,22.38
2022-10-17T11:32:25.087Z,21.39
2022-10-17T11:34:57.840Z,21.45
2022-10-17T11:37:28.659Z,21.70
2022-10-17T11:40:02.137Z,21.92
2022-10-17T11:42:38.275Z,21.86
2022-10-17T11:45:11.719Z,21.71
2022-10-17T11:47:49.487Z,21.97
2022-10-17T11:53:21.843Z,21.77
2022-10-17T11:55:51.071Z,21.78
2022-10-17T11:58:36.626Z,21.87
2022-10-17T12:01:17.562Z,21.87
2022-10-17T12:04:21.511Z,21.99
2022-10-17T12:07:15.264Z,22.12
2022-10-17T12:09:52.435Z,22.01
2022-10-17T12:12:26.554Z,22.23
2022-10-17T12:14:53.795Z,22.12
2022-10-17T12:17:36.681Z,22.21
2022-10-17T12:20:23.319Z,22.32
2022-10-17T12:22:51.966Z,22.44
2022-10-17T12:25:30.533Z,22.20
2022-10-17T12:28:06.911Z,22.67
2022-10-17T12:30:34.469Z,22.69
2022-10-17T12:33:07.521Z,22.82
2022-10-17T12:35:37.207Z,22.28
2022-10-17T12:38:18.487Z,22.99
2022-10-17T12:40:49.026Z,22.98
2022-10-17T12:43:15.521Z,22.88
2022-10-17T12:45:54.014Z,22.65
2022-10-17T12:48:38.735Z,22.55
2022-10-17T12:51:35.315Z,22.43
2022-10-17T12:54:12.463Z,22.78
2022-10-17T12:56:47.694Z,22.69
2022-10-17T12:59:25.435Z,22.62
2022-10-17T13:01:56.183Z,22.56
2022-10-17T13:04:23.425Z,22.46
2022-10-17T13:06:54.758Z,22.43
2022-10-17T13:09:30.264Z,22.29
2022-10-17T13:11:59.777Z,22.58
2022-10-17T13:14:27.379Z,22.38
2022-10-17T13:17:01.789Z,22.62
2022-10-17T13:19:39.500Z,22.57
2022-10-17T13:22:17.358Z,22.47
2022-10-17T13:24:44.110Z,22.24
2022-10-17T13:27:27.766Z,22.64
2022-10-17T13:29:58.098Z,22.34
2022-10-17T13:32:25.995Z,22.39
2022-10-17T13:35:06.566Z,22.73
2022-10-17T13:37:34.303Z,22.28
2022-10-17T13:40:11.548Z,22.09
2022-10-17T13:42:44.623Z,22.47
2022-10-17T13:45:18.924Z,22.81
2022-10-17T13:47:45.824Z,22.84
2022-10-17T13:50:44.450Z,22.86
2022-10-17T13:53:18.764Z,22.72
2022-10-17T13:56:15.799Z,22.87
2022-10-17T13:58:48.589Z,22.80
2022-10-17T14:01:15.803Z,22.34
2022-10-17T14:03:48.997Z,22.91
2022-10-17T14:06:26.822Z,23.04
2022-10-17T14:09:07.139Z,22.96
2022-10-17T14:11:37.914Z,22.93
2022-10-17T14:14:07.551Z,22.88
2022-10-17T14:16:38.447Z,22.89
2022-10-17T14:19:06.765Z,22.48
2022-10-17T14:21:43.335Z,22.83
2022-10-17T14:24:22.970Z,23.00
2022-10-17T14:26:50.669Z,22.93
2022-10-17T14:29:27.630Z,22.79
2022-10-17T14:32:03.895Z,22.72
2022-10-17T14:34:40.455Z,22.80
2022-10-17T14:37:12.630Z,22.76
2022-10-17T14:39:39.341Z,22.78
2022-10-17T14:42:05.898Z,22.75
2022-10-17T14:44:35.175Z,22.33
2022-10-17T14:47:30.433Z,22.76
2022-10-17T14:50:01.906Z,22.68
2022-10-17T14:52:31.232Z,22.31
2022-10-17T14:54:59.413Z,22.17
2022-10-17T14:57:31.729Z,22.12
2022-10-17T14:59:58.197Z,21.78
2022-10-17T15:02:26.767Z,21.85
2022-10-17T15:04:53.613Z,21.62
2022-10-17T15:07:21.244Z,21.49
2022-10-17T15:09:51.362Z,21.72
2022-10-17T15:12:23.380Z,21.56
2022-10-17T15:14:50.756Z,21.50
2022-10-17T15:17:25.457Z,21.37
2022-10-17T15:19:52.114Z,21.32
2022-10-17T15:22:18.553Z,20.66
2022-10-17T15:24:48.318Z,20.93
2022-10-17T15:27:23.075Z,21.22
2022-10-17T15:29:50.321Z,20.80
2022-10-17T15:32:16.778Z,21.23
2022-10-17T15:34:43.570Z,20.97
2022-10-17T15:37:18.715Z,21.27
2022-10-17T15:39:46.687Z,20.72
2022-10-17T15:42:13.094Z,20.62
2022-10-17T15:44:42.659Z,21.07
2022-10-17T15:47:33.647Z,20.84
2022-10-17T15:50:01.247Z,20.95
2022-10-17T15:52:27.778Z,20.87
2022-10-17T15:54:54.629Z,21.01
2022-10-17T15:57:24.412Z,20.43
2022-10-17T15:59:52.384Z,20.83
2022-10-17T16:02:20.827Z,20.75
2022-10-17T16:04:48.495Z,20.79
2022-10-17T16:07:15.190Z,20.59
2022-10-17T16:09:41.528Z,20.63
2022-10-17T16:12:15.238Z,20.70
2022-10-17T16:14:41.670Z,20.36
2022-10-17T16:17:13.188Z,20.56
2022-10-17T16:19:39.760Z,20.84
2022-10-17T16:22:06.642Z,20.56
2022-10-17T16:24:33.204Z,19.66
2022-10-17T16:26:59.574Z,20.58
2022-10-17T16:29:25.885Z,20.68
2022-10-17T16:31:52.294Z,20.39
2022-10-17T16:34:18.598Z,20.55
2022-10-17T16:36:44.993Z,20.53
2022-10-17T16:39:11.362Z,20.51
2022-10-17T16:41:38.922Z,20.50
2022-10-17T16:44:07.738Z,20.55
2022-10-17T16:46:37.169Z,20.60
2022-10-17T16:49:05.349Z,20.48
2022-10-17T16:51:33.687Z,19.99
2022-10-17T16:54:00.240Z,20.14
2022-10-17T16:56:29.792Z,20.11
2022-10-17T16:58:56.829Z,20.26
2022-10-17T17:01:25.291Z,20.44
2022-10-17T17:03:52.849Z,19.78
2022-10-17T17:06:22.108Z,20.40
2022-10-17T17:08:48.459Z,20.06
2022-10-17T17:11:19.475Z,20.39
2022-10-17T17:13:46.091Z,20.32
2022-10-17T17:16:17.958Z,20.14
2022-10-17T17:18:46.013Z,20.08
2022-10-17T17:21:13.143Z,20.41
2022-10-17T17:23:41.017Z,20.48
2022-10-17T17:26:10.838Z,19.79
2022-10-17T17:28:37.831Z,20.15
2022-10-17T17:31:09.847Z,20.19
2022-10-17T17:33:38.726Z,20.23
2022-10-17T17:36:06.088Z,19.72
2022-10-17T17:38:35.686Z,20.11
2022-10-17T17:41:02.538Z,19.12
2022-10-17T17:43:29.222Z,19.54
2022-10-17T17:45:56.035Z,19.85
2022-10-17T17:48:22.809Z,19.43
2022-10-17T17:50:49.190Z,19.76
2022-10-17T17:53:16.746Z,19.68
2022-10-17T17:55:43.273Z,19.91
2022-10-17T17:58:12.146Z,19.79
2022-10-17T18:00:40.493Z,19.30
2022-10-17T18:03:07.471Z,19.83
2022-10-17T18:05:34.255Z,19.68
2022-10-17T18:08:00.663Z,19.31
2022-10-17T18:10:28.281Z,19.47
2022-10-17T18:12:54.626Z,19.48
2022-10-17T18:15:21.057Z,19.54
2022-10-17T18:17:47.531Z,19.59
2022-10-17T18:20:16.335Z,19.43
2022-10-17T18:22:42.941Z,19.40
2022-10-17T18:25:09.515Z,19.72
2022-10-17T18:27:36.102Z,19.56
2022-10-17T18:30:02.587Z,19.26
2022-10-17T18:32:32.826Z,19.59
2022-10-17T18:34:59.487Z,19.44
2022-10-17T18:37:25.930Z,19.20
2022-10-17T18:39:55.222Z,19.50
2022-10-17T18:42:21.805Z,19.35
2022-10-17T18:44:48.423Z,19.50
2022-10-17T18:47:14.793Z,19.42
2022-10-17T18:49:41.173Z,19.03
2022-10-17T18:52:07.673Z,19.58
2022-10-17T18:54:34.639Z,19.75
2022-10-17T18:57:01.294Z,19.23
2022-10-17T18:59:27.652Z,19.61
2022-10-17T19:01:54.170Z,19.08
2022-10-17T19:04:26.295Z,19.14
2022-10-17T19:06:58.518Z,19.39
2022-10-17T19:09:24.878Z,19.47
2022-10-17T19:11:51.576Z,19.56
2022-10-17T19:14:17.988Z,19.36
2022-10-17T19:16:50.792Z,19.51
2022-10-17T19:19:22.144Z,19.46
2022-10-17T19:21:49.234Z,19.26
2022-10-17T19:24:21.979Z,19.30
2022-10-17T19:26:50.296Z,19.38
2022-10-17T19:29:18.147Z,19.34
2022-10-17T19:31:45.613Z,18.52
2022-10-17T19:34:13.469Z,19.28
2022-10-17T19:36:40.333Z,19.29
2022-10-17T19:39:10.607Z,19.39
2022-10-17T19:41:37.041Z,19.11
2022-10-17T19:44:03.554Z,19.07
2022-10-17T19:46:31.241Z,19.22
2022-10-17T19:48:57.950Z,19.11
2022-10-17T19:51:26.176Z,18.56
2022-10-17T19:53:54.446Z,19.05
2022-10-17T19:56:23.126Z,19.16
2022-10-17T19:58:50.419Z,19.16
2022-10-17T20:01:28.051Z,19.10
2022-10-17T20:03:55.380Z,19.13
2022-10-17T20:06:22.503Z,19.10
2022-10-17T20:08:49.839Z,19.06
2022-10-17T20:11:26.831Z,19.10
2022-10-17T20:13:54.577Z,18.93
2022-10-17T20:16:23.778Z,18.58
2022-10-17T20:18:52.095Z,19.01
2022-10-17T20:21:21.816Z,18.48
2022-10-17T20:23:48.430Z,18.81
2022-10-17T20:26:26.272Z,18.84
2022-10-17T20:29:05.355Z,18.85
2022-10-17T20:31:31.978Z,18.92
2022-10-17T20:33:59.591Z,18.95
2022-10-17T20:36:26.682Z,18.98
2022-10-17T20:38:57.655Z,18.86
2022-10-17T20:41:25.572Z,18.98
2022-10-17T20:43:53.834Z,19.04
2022-10-17T20:46:35.487Z,18.61
2022-10-17T20:49:03.790Z,19.06
2022-10-17T20:51:30.368Z,18.25
2022-10-17T20:56:30.051Z,18.90
2022-10-17T20:59:01.537Z,19.01
2022-10-17T21:01:29.509Z,18.70
2022-10-17T21:03:58.945Z,18.81
2022-10-17T21:06:27.183Z,18.81
2022-10-17T21:08:55.117Z,18.90
2022-10-17T21:11:26.158Z,18.85
2022-10-17T21:14:04.891Z,18.91
2022-10-17T21:16:32.898Z,18.99
2022-10-17T21:19:00.032Z,19.01
2022-10-17T21:21:33.523Z,18.53
2022-10-17T21:24:02.925Z,19.00
2022-10-17T21:26:32.398Z,18.92
2022-10-17T21:29:02.811Z,18.91
2022-10-17T21:31:29.278Z,18.93
2022-10-17T21:33:57.716Z,19.08
2022-10-17T21:36:25.946Z,18.59
2022-10-17T21:38:54.123Z,19.11
2022-10-17T21:41:23.598Z,18.78
2022-10-17T21:44:01.734Z,19.19
2022-10-17T21:46:28.741Z,19.12
2022-10-17T21:48:55.815Z,19.15
2022-10-17T21:51:24.526Z,19.12
2022-10-17T21:53:52.418Z,19.02
2022-10-17T21:56:21.533Z,19.06
2022-10-17T21:58:48.556Z,18.77
2022-10-17T22:01:21.050Z,19.07
2022-10-17T22:03:50.521Z,18.96
2022-10-17T22:09:09.268Z,19.03
2022-10-17T22:11:35.943Z,18.76
2022-10-17T22:14:05.335Z,18.81
2022-10-17T22:16:32.622Z,18.99
2022-10-17T22:19:04.841Z,18.36
2022-10-17T22:21:33.606Z,18.62
2022-10-17T22:24:02.642Z,18.33
2022-10-17T22:26:31.110Z,18.86
2022-10-17T22:28:58.370Z,18.65
2022-10-17T22:31:25.378Z,18.92
2022-10-17T22:33:52.486Z,18.85
2022-10-17T22:36:19.310Z,18.97
2022-10-17T22:38:45.678Z,18.95
2022-10-17T22:41:12.057Z,18.92
2022-10-17T22:43:38.386Z,18.44
2022-10-17T22:46:06.553Z,18.82
2022-10-17T22:48:33.627Z,18.98
2022-10-17T22:51:01.241Z,18.85
2022-10-17T22:53:29.364Z,18.93
2022-10-17T22:56:02.002Z,19.07
2022-10-17T22:58:30.041Z,18.90
2022-10-17T23:00:56.673Z,18.74
2022-10-17T23:03:24.438Z,19.03
2022-10-17T23:05:51.192Z,18.92
2022-10-17T23:08:18.800Z,18.80
2022-10-17T23:10:46.095Z,18.87
2022-10-17T23:13:13.009Z,18.90
2022-10-17T23:15:39.654Z,18.70
2022-10-17T23:18:06.081Z,18.81
2022-10-17T23:20:32.810Z,18.76
2022-10-17T23:22:59.487Z,18.30
2022-10-17T23:25:26.417Z,18.67
2022-10-17T23:27:52.993Z,18.05
2022-10-17T23:30:19.440Z,18.38
2022-10-17T23:32:46.134Z,18.75
2022-10-17T23:35:12.751Z,18.34
2022-10-17T23:37:39.154Z,18.81
2022-10-17T23:40:06.426Z,18.97
2022-10-17T23:42:32.742Z,18.59
2022-10-17T23:44:59.222Z,18.91
2022-10-17T23:47:25.625Z,18.49
2022-10-17T23:49:52.051Z,18.60
2022-10-17T23:52:18.486Z,18.52
2022-10-17T23:54:44.870Z,18.42
2022-10-17T23:57:11.276Z,18.95
2022-10-17T23:59:37.624Z,18.53
